createdAt,value
2022-11-23T00:02:45.779Z,100.00
2022-11-23T00:05:47.350Z,99.09
2022-11-23T00:08:50.372Z,98.93
2022-11-23T00:11:51.996Z,99.51
2022-11-23T00:14:53.473Z,98.92
2022-11-23T00:17:55.041Z,99.25
2022-11-23T00:20:56.576Z,99.05
2022-11-23T00:23:59.629Z,98.93
2022-11-23T00:27:01.250Z,99.03
2022-11-23T00:30:02.824Z,99.32
2022-11-23T00:33:05.119Z,99.02
2022-11-23T00:36:08.278Z,98.44
2022-11-23T00:39:11.311Z,99.31
2022-11-23T00:42:12.740Z,99.11
2022-11-23T00:45:14.238Z,98.77
2022-11-23T00:48:15.847Z,99.33
2022-11-23T00:51:18.417Z,99.36
2022-11-23T00:54:21.341Z,100.00
2022-11-23T00:57:22.905Z,100.00
2022-11-23T01:00:24.455Z,100.00
2022-11-23T01:03:25.987Z,100.00
2022-11-23T01:06:28.274Z,100.00
2022-11-23T01:09:31.426Z,100.00
2022-11-23T01:12:33.330Z,100.00
2022-11-23T01:15:34.782Z,100.00
2022-11-23T01:18:36.451Z,100.00
2022-11-23T01:21:38.570Z,100.00
2022-11-23T01:24:41.644Z,100.00
2022-11-23T01:27:43.211Z,100.00
2022-11-23T01:30:44.764Z,100.00
2022-11-23T01:33:46.457Z,100.00
2022-11-23T01:36:48.033Z,100.00
2022-11-23T01:39:51.029Z,100.00
2022-11-23T01:42:53.957Z,100.00
2022-11-23T01:45:56.529Z,100.00
2022-11-23T01:49:01.973Z,100.00
2022-11-23T01:52:06.742Z,100.00
2022-11-23T01:55:09.910Z,100.00
2022-11-23T01:58:13.370Z,100.00
2022-11-23T02:01:15.322Z,100.00
2022-11-23T02:04:22.535Z,100.00
2022-11-23T02:07:25.276Z,100.00
2022-11-23T02:10:29.752Z,100.00
2022-11-23T02:13:31.781Z,100.00
2022-11-23T02:16:33.514Z,100.00
2022-11-23T02:19:38.545Z,100.00
2022-11-23T02:22:44.863Z,100.00
2022-11-23T02:25:55.009Z,100.00
2022-11-23T02:29:00.813Z,100.00
2022-11-23T02:32:02.569Z,100.00
2022-11-23T02:35:04.398Z,100.00
2022-11-23T02:38:06.838Z,100.00
2022-11-23T02:41:10.038Z,100.00
2022-11-23T02:44:19.841Z,100.00
2022-11-23T02:47:21.777Z,100.00
2022-11-23T02:50:23.249Z,100.00
2022-11-23T02:53:24.764Z,100.00
2022-11-23T02:56:27.781Z,100.00
2022-11-23T02:59:32.525Z,100.00
2022-11-23T03:02:34.411Z,100.00
2022-11-23T03:05:36.025Z,100.00
2022-11-23T03:08:37.730Z,100.00
2022-11-23T03:11:40.661Z,100.00
2022-11-23T03:14:42.296Z,100.00
2022-11-23T03:17:43.936Z,100.00
2022-11-23T03:20:45.458Z,100.00
2022-11-23T03:23:47.040Z,100.00
2022-11-23T03:26:49.951Z,100.00
2022-11-23T03:29:51.519Z,100.00
2022-11-23T03:32:53.553Z,100.00
2022-11-23T03:35:56.412Z,100.00
2022-11-23T03:38:58.041Z,100.00
2022-11-23T03:42:01.158Z,100.00
2022-11-23T03:45:03.038Z,100.00
2022-11-23T03:48:04.590Z,100.00
2022-11-23T03:51:06.368Z,100.00
2022-11-23T03:54:08.219Z,100.00
2022-11-23T03:57:11.065Z,100.00
2022-11-23T04:00:12.689Z,100.00
2022-11-23T04:03:14.251Z,100.00
2022-11-23T04:06:15.684Z,100.00
2022-11-23T04:09:17.217Z,100.00
2022-11-23T04:12:20.076Z,100.00
2022-11-23T04:15:21.732Z,100.00
2022-11-23T04:18:23.149Z,100.00
2022-11-23T04:21:24.810Z,100.00
2022-11-23T04:24:26.409Z,100.00
2022-11-23T04:27:29.421Z,100.00
2022-11-23T04:30:31.112Z,100.00
2022-11-23T04:33:32.793Z,100.00
2022-11-23T04:36:34.353Z,100.00
2022-11-23T04:39:35.778Z,100.00
2022-11-23T04:42:38.758Z,100.00
2022-11-23T04:45:40.758Z,100.00
2022-11-23T04:48:42.463Z,100.00
2022-11-23T04:51:44.012Z,100.00
2022-11-23T04:54:45.813Z,100.00
2022-11-23T04:57:48.722Z,100.00
2022-11-23T05:00:50.281Z,100.00
2022-11-23T05:03:51.855Z,100.00
2022-11-23T05:06:53.503Z,100.00
2022-11-23T05:09:55.091Z,100.00
2022-11-23T05:12:58.001Z,100.00
2022-11-23T05:15:59.642Z,100.00
2022-11-23T05:19:01.056Z,100.00
2022-11-23T05:22:02.617Z,100.00
2022-11-23T05:25:04.311Z,100.00
2022-11-23T05:28:30.214Z,100.00
2022-11-23T05:31:28.772Z,100.00
2022-11-23T05:34:30.373Z,100.00
2022-11-23T05:37:31.943Z,100.00
2022-11-23T05:40:33.529Z,100.00
2022-11-23T05:43:36.545Z,100.00
2022-11-23T05:46:38.163Z,100.00
2022-11-23T05:49:39.635Z,100.00
2022-11-23T05:52:41.186Z,100.00
2022-11-23T05:55:42.820Z,100.00
2022-11-23T05:58:45.629Z,100.00
2022-11-23T06:01:47.259Z,100.00
2022-11-23T06:04:48.755Z,100.00
2022-11-23T06:07:52.562Z,100.00
2022-11-23T06:10:54.280Z,100.00
2022-11-23T06:13:57.286Z,100.00
2022-11-23T06:16:58.921Z,100.00
2022-11-23T06:20:00.640Z,100.00
2022-11-23T06:23:02.362Z,100.00
2022-11-23T06:26:04.137Z,100.00
2022-11-23T06:29:07.024Z,100.00
2022-11-23T06:32:08.868Z,100.00
2022-11-23T06:35:10.410Z,100.00
2022-11-23T06:38:11.963Z,100.00
2022-11-23T06:41:13.498Z,100.00
2022-11-23T06:44:16.471Z,100.00
2022-11-23T06:47:21.926Z,100.00
2022-11-23T06:50:27.103Z,100.00
2022-11-23T06:53:28.994Z,100.00
2022-11-23T06:56:31.460Z,100.00
2022-11-23T06:59:34.919Z,100.00
2022-11-23T07:02:36.600Z,100.00
2022-11-23T07:05:38.775Z,100.00
2022-11-23T07:08:43.582Z,100.00
2022-11-23T07:11:45.097Z,100.00
2022-11-23T07:14:48.087Z,100.00
2022-11-23T07:17:49.601Z,100.00
2022-11-23T07:20:51.139Z,100.00
2022-11-23T07:23:52.723Z,100.00
2022-11-23T07:26:54.510Z,100.00
2022-11-23T07:29:57.359Z,100.00
2022-11-23T07:32:59.665Z,100.00
2022-11-23T07:36:02.320Z,100.00
2022-11-23T07:39:04.284Z,100.00
2022-11-23T07:42:31.209Z,100.00
2022-11-23T07:45:29.711Z,100.00
2022-11-23T07:48:36.206Z,100.00
2022-11-23T07:51:38.131Z,100.00
2022-11-23T07:54:39.666Z,100.00
2022-11-23T07:57:41.163Z,99.78
2022-11-23T08:00:44.140Z,100.00
2022-11-23T08:03:46.071Z,99.84
2022-11-23T08:06:47.571Z,99.92
2022-11-23T08:09:49.041Z,99.25
2022-11-23T08:12:50.993Z,99.23
2022-11-23T08:15:55.773Z,99.55
2022-11-23T08:18:57.687Z,99.17
2022-11-23T08:21:59.344Z,99.17
2022-11-23T08:25:00.880Z,99.24
2022-11-23T08:28:03.307Z,98.90
2022-11-23T08:31:07.419Z,98.84
2022-11-23T08:34:09.254Z,98.77
2022-11-23T08:37:10.959Z,98.51
2022-11-23T08:40:13.247Z,98.60
2022-11-23T08:43:14.768Z,98.67
2022-11-23T08:46:17.970Z,97.81
2022-11-23T08:49:19.541Z,98.02
2022-11-23T08:52:21.096Z,97.90
2022-11-23T08:55:22.587Z,98.15
2022-11-23T08:58:24.158Z,98.22
2022-11-23T09:01:27.865Z,97.81
2022-11-23T09:04:30.968Z,98.34
2022-11-23T09:07:32.663Z,98.05
2022-11-23T09:10:34.349Z,97.90
2022-11-23T09:13:37.251Z,97.49
2022-11-23T09:16:40.173Z,97.67
2022-11-23T09:19:42.038Z,97.52
2022-11-23T09:22:44.089Z,97.34
2022-11-23T09:25:48.490Z,97.32
2022-11-23T09:28:50.020Z,96.83
2022-11-23T09:31:53.278Z,96.56
2022-11-23T09:34:54.873Z,96.40
2022-11-23T09:37:57.520Z,96.70
2022-11-23T09:41:03.879Z,96.55
2022-11-23T09:44:08.600Z,96.89
2022-11-23T09:47:22.646Z,96.61
2022-11-23T09:50:27.247Z,96.53
2022-11-23T09:53:33.677Z,96.43
2022-11-23T09:56:36.608Z,96.17
2022-11-23T09:59:40.913Z,95.91
2022-11-23T10:02:43.795Z,95.39
2022-11-23T10:05:48.177Z,95.62
2022-11-23T10:08:55.670Z,95.23
2022-11-23T10:12:02.666Z,95.05
2022-11-23T10:15:09.938Z,95.31
2022-11-23T10:18:22.645Z,95.18
2022-11-23T10:21:30.314Z,94.95
2022-11-23T10:24:34.041Z,95.23
2022-11-23T10:27:36.055Z,94.59
2022-11-23T10:30:38.564Z,94.45
2022-11-23T10:33:46.613Z,93.69
2022-11-23T10:36:48.180Z,93.99
2022-11-23T10:39:49.694Z,93.95
2022-11-23T10:42:53.816Z,93.12
2022-11-23T10:46:17.460Z,93.24
2022-11-23T10:49:21.213Z,93.50
2022-11-23T10:52:27.901Z,93.58
2022-11-23T10:55:31.703Z,92.42
2022-11-23T10:58:37.104Z,92.60
2022-11-23T11:01:38.720Z,92.40
2022-11-23T11:04:41.713Z,93.13
2022-11-23T11:07:43.437Z,92.89
2022-11-23T11:10:46.464Z,92.93
2022-11-23T11:13:48.533Z,92.07
2022-11-23T11:16:51.257Z,91.60
2022-11-23T11:19:54.666Z,91.33
2022-11-23T11:22:57.261Z,91.59
2022-11-23T11:26:10.583Z,89.90
2022-11-23T11:29:23.332Z,90.32
2022-11-23T11:32:29.129Z,87.98
2022-11-23T11:35:34.677Z,88.70
2022-11-23T11:38:37.417Z,88.32
2022-11-23T11:41:39.908Z,86.50
2022-11-23T11:44:43.022Z,85.33
2022-11-23T11:47:47.338Z,85.32
2022-11-23T11:50:52.547Z,85.56
2022-11-23T11:53:57.526Z,84.82
2022-11-23T11:57:02.499Z,82.51
2022-11-23T12:00:07.456Z,82.32
2022-11-23T12:03:15.068Z,83.39
2022-11-23T12:06:26.345Z,84.80
2022-11-23T12:09:31.599Z,84.08
2022-11-23T12:12:34.738Z,83.92
2022-11-23T12:15:55.663Z,84.24
2022-11-23T12:19:04.584Z,83.95
2022-11-23T12:22:14.638Z,82.81
2022-11-23T12:25:20.649Z,82.68
2022-11-23T12:28:28.503Z,83.62
2022-11-23T12:31:39.450Z,83.00
2022-11-23T12:34:50.358Z,82.53
2022-11-23T12:37:59.614Z,82.20
2022-11-23T12:41:08.623Z,81.24
2022-11-23T12:44:34.521Z,81.88
2022-11-23T12:47:43.097Z,82.59
2022-11-23T12:50:47.490Z,81.67
2022-11-23T12:53:54.716Z,81.75
2022-11-23T12:57:02.718Z,81.98
2022-11-23T13:00:06.523Z,82.83
2022-11-23T13:03:25.949Z,82.24
2022-11-23T13:07:20.265Z,82.55
2022-11-23T13:10:27.830Z,83.80
2022-11-23T13:13:36.715Z,83.27
2022-11-23T13:16:54.572Z,82.44
2022-11-23T13:20:07.915Z,82.34
2022-11-23T13:23:09.539Z,82.92
2022-11-23T13:26:18.009Z,83.99
2022-11-23T13:29:34.318Z,82.61
2022-11-23T13:32:46.610Z,82.53
2022-11-23T13:35:51.405Z,82.42
2022-11-23T13:38:52.999Z,82.85
2022-11-23T13:42:00.612Z,80.41
2022-11-23T13:45:22.476Z,81.61
2022-11-23T13:48:56.271Z,81.52
2022-11-23T13:52:04.036Z,81.15
2022-11-23T13:55:18.453Z,81.66
2022-11-23T13:58:40.061Z,82.06
2022-11-23T14:02:00.536Z,80.62
2022-11-23T14:05:20.972Z,79.74
2022-11-23T14:08:28.198Z,80.33
2022-11-23T14:11:30.644Z,80.99
2022-11-23T14:14:40.179Z,80.91
2022-11-23T14:17:55.812Z,80.83
2022-11-23T14:21:04.125Z,80.75
2022-11-23T14:24:19.815Z,81.18
2022-11-23T14:27:46.746Z,81.39
2022-11-23T14:30:56.008Z,81.08
2022-11-23T14:34:02.977Z,81.82
2022-11-23T14:37:09.340Z,81.50
2022-11-23T14:40:17.933Z,80.76
2022-11-23T14:43:20.100Z,80.95
2022-11-23T14:46:22.708Z,80.79
2022-11-23T14:49:24.914Z,81.84
2022-11-23T14:52:27.674Z,80.95
2022-11-23T14:55:30.696Z,81.60
2022-11-23T14:58:32.891Z,81.30
2022-11-23T15:01:34.940Z,81.61
2022-11-23T15:04:42.267Z,81.50
2022-11-23T15:07:50.920Z,82.31
2022-11-23T15:11:00.052Z,81.74
2022-11-23T15:14:04.790Z,81.80
2022-11-23T15:17:15.935Z,81.46
2022-11-23T15:20:17.479Z,81.43
2022-11-23T15:23:20.656Z,81.81
2022-11-23T15:26:46.631Z,82.55
2022-11-23T15:29:51.028Z,82.61
2022-11-23T15:32:56.813Z,82.58
2022-11-23T15:35:58.449Z,82.00
2022-11-23T15:39:01.401Z,82.81
2022-11-23T15:42:04.951Z,83.24
2022-11-23T15:45:26.937Z,82.97
2022-11-23T15:48:29.889Z,83.41
2022-11-23T15:51:33.216Z,83.50
2022-11-23T15:54:35.827Z,84.12
2022-11-23T15:57:39.734Z,84.16
2022-11-23T16:00:46.914Z,84.50
2022-11-23T16:04:09.858Z,84.04
2022-11-23T16:07:19.062Z,84.79
2022-11-23T16:10:21.559Z,84.24
2022-11-23T16:13:35.928Z,84.41
2022-11-23T16:16:42.708Z,84.34
2022-11-23T16:19:47.827Z,84.51
2022-11-23T16:22:50.190Z,84.82
2022-11-23T16:25:59.370Z,84.38
2022-11-23T16:29:02.440Z,84.80
2022-11-23T16:32:07.152Z,84.31
2022-11-23T16:35:15.484Z,84.48
2022-11-23T16:38:17.103Z,84.85
2022-11-23T16:41:19.004Z,84.72
2022-11-23T16:44:21.853Z,84.26
2022-11-23T16:47:24.403Z,84.51
2022-11-23T16:50:27.366Z,84.58
2022-11-23T16:53:47.081Z,85.02
2022-11-23T16:56:52.676Z,85.00
2022-11-23T16:59:55.651Z,85.30
2022-11-23T17:02:59.125Z,85.07
2022-11-23T17:06:00.712Z,85.56
2022-11-23T17:09:07.941Z,85.48
2022-11-23T17:12:14.538Z,85.80
2022-11-23T17:15:18.052Z,85.97
2022-11-23T17:18:22.871Z,86.20
2022-11-23T17:21:24.458Z,85.59
2022-11-23T17:24:26.163Z,86.52
2022-11-23T17:27:28.950Z,86.32
2022-11-23T17:30:33.023Z,86.35
2022-11-23T17:33:34.626Z,86.86
2022-11-23T17:36:36.259Z,86.95
2022-11-23T17:39:37.786Z,86.68
2022-11-23T17:42:39.188Z,86.56
2022-11-23T17:45:42.891Z,86.01
2022-11-23T17:48:44.842Z,85.84
2022-11-23T17:51:46.346Z,86.18
2022-11-23T17:54:48.147Z,86.55
2022-11-23T17:57:49.728Z,86.56
2022-11-23T18:00:52.586Z,86.70
2022-11-23T18:03:54.185Z,86.17
2022-11-23T18:06:55.931Z,86.66
2022-11-23T18:09:57.600Z,86.21
2022-11-23T18:12:59.155Z,86.73
2022-11-23T18:16:02.205Z,86.52
2022-11-23T18:19:04.621Z,86.17
2022-11-23T18:22:06.410Z,86.22
2022-11-23T18:25:08.452Z,86.34
2022-11-23T18:28:10.454Z,86.08
2022-11-23T18:31:13.582Z,86.28
2022-11-23T18:34:15.352Z,86.48
2022-11-23T18:37:16.919Z,86.38
2022-11-23T18:40:18.604Z,86.56
2022-11-23T18:43:20.265Z,86.65
2022-11-23T18:46:23.468Z,87.12
2022-11-23T18:49:25.131Z,87.01
2022-11-23T18:52:26.723Z,87.63
2022-11-23T18:55:28.178Z,87.40
2022-11-23T18:58:31.815Z,87.63
2022-11-23T19:01:35.127Z,87.57
2022-11-23T19:04:38.749Z,87.72
2022-11-23T19:07:40.256Z,87.94
2022-11-23T19:10:41.844Z,88.25
2022-11-23T19:13:43.841Z,87.59
2022-11-23T19:16:46.732Z,88.00
2022-11-23T19:19:48.284Z,87.64
2022-11-23T19:22:50.091Z,87.27
2022-11-23T19:25:51.657Z,87.70
2022-11-23T19:28:54.022Z,86.94
2022-11-23T19:31:56.947Z,86.80
2022-11-23T19:34:59.240Z,86.47
2022-11-23T19:38:00.818Z,86.47
2022-11-23T19:41:02.376Z,86.45
2022-11-23T19:44:04.455Z,85.70
2022-11-23T19:47:13.739Z,85.83
2022-11-23T19:50:17.104Z,86.04
2022-11-23T19:53:18.729Z,85.29
2022-11-23T19:56:21.094Z,85.60
2022-11-23T19:59:23.964Z,85.50
2022-11-23T20:02:27.152Z,85.33
2022-11-23T20:05:28.761Z,85.42
2022-11-23T20:08:30.672Z,85.54
2022-11-23T20:11:36.288Z,86.18
2022-11-23T20:14:38.062Z,86.91
2022-11-23T20:17:41.385Z,86.91
2022-11-23T20:20:43.658Z,88.07
2022-11-23T20:23:45.958Z,88.25
2022-11-23T20:26:47.515Z,88.34
2022-11-23T20:29:49.294Z,89.00
2022-11-23T20:32:52.264Z,88.64
2022-11-23T20:35:53.657Z,89.39
2022-11-23T20:38:55.721Z,90.31
2022-11-23T20:41:58.754Z,92.03
2022-11-23T20:45:00.632Z,92.49
2022-11-23T20:48:03.642Z,93.60
2022-11-23T20:51:10.211Z,94.45
2022-11-23T20:54:12.368Z,94.83
2022-11-23T20:57:13.883Z,95.41
2022-11-23T21:00:16.838Z,96.09
2022-11-23T21:03:19.779Z,96.91
2022-11-23T21:06:22.077Z,96.34
2022-11-23T21:09:23.861Z,97.83
2022-11-23T21:12:49.129Z,98.15
2022-11-23T21:15:52.100Z,98.98
2022-11-23T21:18:55.058Z,98.98
2022-11-23T21:21:57.570Z,99.21
2022-11-23T21:24:59.029Z,99.39
2022-11-23T21:28:03.202Z,100.00
2022-11-23T21:31:08.178Z,100.00
2022-11-23T21:34:17.571Z,100.00
2022-11-23T21:37:19.061Z,100.00
2022-11-23T21:40:20.690Z,100.00
2022-11-23T21:43:22.188Z,100.00
2022-11-23T21:46:24.625Z,100.00
2022-11-23T21:49:28.536Z,100.00
2022-11-23T21:52:30.496Z,100.00
2022-11-23T21:55:32.774Z,100.00
2022-11-23T21:58:48.176Z,100.00
2022-11-23T22:01:49.880Z,100.00
2022-11-23T22:04:53.044Z,100.00
2022-11-23T22:08:27.838Z,100.00
2022-11-23T22:11:17.354Z,100.00
2022-11-23T22:14:19.744Z,100.00
2022-11-23T22:17:21.248Z,100.00
2022-11-23T22:20:24.113Z,100.00
2022-11-23T22:23:25.920Z,100.00
2022-11-23T22:26:30.300Z,100.00
2022-11-23T22:29:31.875Z,100.00
2022-11-23T22:32:33.383Z,100.00
2022-11-23T22:35:36.402Z,100.00
2022-11-23T22:38:38.389Z,100.00
2022-11-23T22:41:40.042Z,100.00
2022-11-23T22:44:41.857Z,100.00
2022-11-23T22:47:43.444Z,100.00
2022-11-23T22:50:56.383Z,100.00
2022-11-23T22:53:58.776Z,100.00
2022-11-23T22:57:00.421Z,100.00
2022-11-23T23:00:01.947Z,100.00
2022-11-23T23:03:03.771Z,100.00
2022-11-23T23:06:07.859Z,100.00
2022-11-23T23:09:09.922Z,100.00
2022-11-23T23:12:11.453Z,100.00
2022-11-23T23:15:13.142Z,100.00
2022-11-23T23:18:16.257Z,100.00
2022-11-23T23:21:19.898Z,100.00
2022-11-23T23:24:21.493Z,100.00
2022-11-23T23:27:23.453Z,100.00
2022-11-23T23:30:25.058Z,100.00
2022-11-23T23:33:28.336Z,100.00
2022-11-23T23:36:31.282Z,100.00
2022-11-23T23:39:32.828Z,100.00
2022-11-23T23:42:34.337Z,100.00
2022-11-23T23:45:35.884Z,100.00
2022-11-23T23:48:38.141Z,100.00
2022-11-23T23:51:41.250Z,100.00
2022-11-23T23:54:43.210Z,100.00
2022-11-23T23:57:44.759Z,100.00
